Time;durP1;ratioP1;P1;durP2;ratioP2;P2;SDS_P1;SDS_P2;PMS_P1;PMS_P2;Temp;Humidity;BMP_temperature;BMP_pressure;BME280_temperature;BME280_humidity;BME280_pressure;Samples;Min_cycle;Max_cycle;Signal;HPM_P1;HPM_P2
2022/02/13 00:00:43;;;;;;;15.88;8.02;;;;;;;0.50;79.10;101876.38;5051991;28;20053;-75
2022/02/13 00:03:08;;;;;;;16.67;8.63;;;;;;;0.49;79.47;101867.69;5053022;28;20370;-76
2022/02/13 00:05:33;;;;;;;17.70;8.35;;;;;;;0.50;79.28;101861.50;5053784;28;20359;-75
2022/02/13 00:08:00;;;;;;;16.25;8.35;;;;;;;0.54;79.44;101851.81;5052795;28;20029;-74
2022/02/13 00:10:26;;;;;;;20.92;8.75;;;;;;;0.54;79.42;101841.34;5053212;28;20052;-73
2022/02/13 00:12:52;;;;;;;17.23;8.27;;;;;;;0.52;79.33;101832.66;5052843;28;20029;-79
2022/02/13 00:15:17;;;;;;;14.75;8.40;;;;;;;0.49;79.30;101827.50;5053197;28;20056;-75
2022/02/13 00:17:43;;;;;;;13.50;8.98;;;;;;;0.53;79.82;101823.91;5053363;28;20025;-75
2022/02/13 00:20:09;;;;;;;14.13;8.40;;;;;;;0.56;79.53;101807.22;5052593;28;20040;-75
2022/02/13 00:22:34;;;;;;;19.80;8.77;;;;;;;0.60;79.60;101799.22;5053461;28;20083;-75
2022/02/13 00:25:00;;;;;;;16.00;8.15;;;;;;;0.63;78.75;101796.50;5052419;28;20052;-75
2022/02/13 00:27:25;;;;;;;21.40;8.70;;;;;;;0.63;79.16;101795.66;5052910;28;20052;-75
2022/02/13 00:29:51;;;;;;;14.23;8.20;;;;;;;0.64;79.23;101798.22;5052565;28;20110;-75
2022/02/13 00:32:16;;;;;;;11.20;7.78;;;;;;;0.66;79.21;101778.06;5051327;28;20542;-75
2022/02/13 00:34:44;;;;;;;16.08;8.57;;;;;;;0.62;79.39;101786.91;5052971;28;20075;-74
2022/02/13 00:37:09;;;;;;;15.00;8.20;;;;;;;0.67;79.93;101785.00;5052271;28;20037;-74
2022/02/13 00:39:35;;;;;;;15.85;8.43;;;;;;;0.71;79.26;101772.66;5052585;28;20126;-74
2022/02/13 00:42:00;;;;;;;15.00;8.07;;;;;;;0.75;79.42;101778.63;5050675;28;20037;-75
2022/02/13 00:44:27;;;;;;;16.08;7.97;;;;;;;0.75;79.46;101781.25;5052566;28;20033;-75
2022/02/13 00:46:52;;;;;;;14.18;7.57;;;;;;;0.73;79.45;101778.69;5052482;28;20470;-75
2022/02/13 00:49:18;;;;;;;14.95;7.75;;;;;;;0.75;79.59;101773.38;5051785;28;20135;-75
2022/02/13 00:51:43;;;;;;;16.20;8.10;;;;;;;0.81;79.61;101767.97;5052350;28;20043;-75
2022/02/13 00:54:09;;;;;;;13.25;7.80;;;;;;;0.85;79.60;101757.31;5052017;28;20037;-75
2022/02/13 00:56:34;;;;;;;19.23;8.10;;;;;;;0.91;79.06;101747.53;5052415;28;20036;-74
2022/02/13 00:58:59;;;;;;;16.83;8.30;;;;;;;0.91;79.21;101744.91;5050374;28;20474;-75
2022/02/13 01:01:25;;;;;;;16.45;8.45;;;;;;;0.94;79.13;101726.44;5052140;28;20432;-75
2022/02/13 01:03:50;;;;;;;19.60;7.85;;;;;;;0.99;79.15;101733.25;5052438;28;20044;-75
2022/02/13 01:06:16;;;;;;;16.27;8.38;;;;;;;1.08;78.86;101728.59;5051619;28;20644;-76
2022/02/13 01:08:41;;;;;;;14.80;8.32;;;;;;;1.14;78.40;101720.50;5052056;28;20033;-75
2022/02/13 01:11:07;;;;;;;87.00;45.78;;;;;;;1.18;78.47;101719.44;5051344;28;20025;-76
2022/02/13 01:13:33;;;;;;;33.20;15.95;;;;;;;1.25;78.25;101713.06;5052231;28;20415;-75
2022/02/13 01:15:59;;;;;;;23.10;9.15;;;;;;;1.26;78.07;101712.16;5050091;28;20354;-79
2022/02/13 01:18:25;;;;;;;23.38;7.95;;;;;;;1.31;77.71;101715.44;5052295;28;20037;-75
2022/02/13 01:20:51;;;;;;;13.05;7.60;;;;;;;1.32;77.55;101717.16;5051763;28;20421;-75
2022/02/13 01:23:16;;;;;;;15.27;7.13;;;;;;;1.32;77.65;101717.16;5051502;28;20462;-75
2022/02/13 01:25:42;;;;;;;14.93;7.45;;;;;;;1.31;77.82;101730.34;5051974;28;20033;-75
2022/02/13 01:28:07;;;;;;;15.07;7.18;;;;;;;1.28;77.58;101733.06;5051238;28;20036;-75
2022/02/13 01:30:33;;;;;;;11.93;7.30;;;;;;;1.25;77.73;101728.78;5051685;28;20029;-75
2022/02/13 01:32:59;;;;;;;12.45;7.03;;;;;;;1.22;77.61;101719.31;5051730;28;20044;-75
2022/02/13 01:35:25;;;;;;;13.05;7.22;;;;;;;1.15;77.84;101719.56;5051524;28;20040;-74
2022/02/13 01:37:50;;;;;;;16.02;7.10;;;;;;;1.06;78.10;101710.28;5051594;28;20482;-73
2022/02/13 01:40:16;;;;;;;14.63;7.32;;;;;;;1.02;78.24;101711.31;5051113;28;20021;-75
2022/02/13 01:42:41;;;;;;;12.27;7.47;;;;;;;0.97;78.48;101707.97;5049803;28;20389;-74
2022/02/13 01:45:07;;;;;;;12.90;7.30;;;;;;;0.90;78.71;101699.50;5050923;28;20560;-76
2022/02/13 01:47:34;;;;;;;12.85;7.38;;;;;;;0.91;78.90;101695.09;5050475;28;20041;-76
2022/02/13 01:50:00;;;;;;;10.20;7.07;;;;;;;0.89;78.51;101692.53;5050471;28;20079;-76
2022/02/13 01:52:26;;;;;;;9.23;7.10;;;;;;;0.86;79.12;101695.28;5051183;28;20061;-76
2022/02/13 01:54:52;;;;;;;10.57;7.45;;;;;;;0.77;79.33;101690.38;5051303;28;20155;-76
2022/02/13 01:57:17;;;;;;;12.90;7.38;;;;;;;0.75;79.27;101692.19;5050908;28;20064;-76
2022/02/13 01:59:43;;;;;;;15.38;7.15;;;;;;;0.68;79.46;101692.41;5051217;28;20037;-76
2022/02/13 02:02:08;;;;;;;14.00;7.70;;;;;;;0.65;79.91;101691.66;5050607;28;20119;-76
2022/02/13 02:04:33;;;;;;;11.77;7.60;;;;;;;0.68;79.63;101676.69;5050332;28;20495;-76
2022/02/13 02:07:01;;;;;;;12.18;7.63;;;;;;;0.65;79.87;101676.78;5051399;28;20461;-76
2022/02/13 02:09:26;;;;;;;22.55;8.10;;;;;;;0.60;79.96;101678.72;5050548;28;20216;-76
2022/02/13 02:11:52;;;;;;;17.25;7.40;;;;;;;0.56;80.16;101665.81;5051661;28;20478;-76
2022/02/13 02:14:17;;;;;;;13.68;7.53;;;;;;;0.60;80.42;101659.53;5050548;28;20059;-77
2022/02/13 02:16:43;;;;;;;12.13;7.78;;;;;;;0.58;80.25;101648.25;5051208;28;20033;-76
2022/02/13 02:19:10;;;;;;;11.05;7.40;;;;;;;0.53;80.41;101640.56;5050380;28;20461;-74
2022/02/13 02:21:40;;;;;;;14.88;8.13;;;;;;;0.51;80.57;101638.00;5051206;28;20469;-76
2022/02/13 02:24:09;;;;;;;11.65;7.28;;;;;;;0.47;80.68;101636.41;5051005;28;20029;-79
2022/02/13 02:26:35;;;;;;;14.35;7.93;;;;;;;0.44;80.83;101625.19;5051134;28;20040;-76
2022/02/13 02:29:00;;;;;;;15.68;7.45;;;;;;;0.41;81.12;101636.63;5051028;28;20473;-77
2022/02/13 02:31:25;;;;;;;15.18;7.22;;;;;;;0.45;81.01;101617.28;5050676;28;20516;-76
2022/02/13 02:33:51;;;;;;;14.32;7.43;;;;;;;0.48;80.93;101614.56;5051149;28;20032;-76
2022/02/13 02:36:17;;;;;;;12.18;7.28;;;;;;;0.49;80.70;101618.00;5050769;28;20036;-77
2022/02/13 02:38:43;;;;;;;15.68;7.60;;;;;;;0.47;80.98;101610.22;5033010;28;20131;-77
2022/02/13 02:41:08;;;;;;;15.25;7.53;;;;;;;0.48;80.89;101604.06;5050725;28;20151;-79
2022/02/13 02:43:34;;;;;;;16.02;7.72;;;;;;;0.44;81.00;101592.00;5050395;28;20063;-76
2022/02/13 02:45:59;;;;;;;12.43;7.75;;;;;;;0.42;81.03;101591.22;5049739;28;20449;-75
2022/02/13 02:48:25;;;;;;;12.70;8.02;;;;;;;0.33;80.97;101587.16;5050737;28;20083;-75
2022/02/13 02:50:50;;;;;;;15.07;7.32;;;;;;;0.34;81.40;101580.16;5050654;28;20033;-75
2022/02/13 02:53:15;;;;;;;13.90;7.75;;;;;;;0.38;81.11;101578.28;5052140;28;20035;-76
2022/02/13 02:55:41;;;;;;;16.27;8.23;;;;;;;0.41;81.01;101565.94;5054662;28;20120;-76
2022/02/13 02:58:07;;;;;;;12.77;8.02;;;;;;;0.42;81.27;101562.41;5054560;28;20032;-76
2022/02/13 03:00:32;;;;;;;13.55;7.20;;;;;;;0.49;80.44;101555.16;5053653;28;20067;-75
2022/02/13 03:02:58;;;;;;;12.70;7.47;;;;;;;0.41;80.64;101550.22;5054617;28;20358;-77
2022/02/13 03:05:23;;;;;;;13.25;7.50;;;;;;;0.36;81.21;101560.00;5053937;28;20041;-76
2022/02/13 03:07:48;;;;;;;11.55;7.22;;;;;;;0.31;81.10;101551.47;5054608;28;20041;-76
2022/02/13 03:10:14;;;;;;;14.13;7.88;;;;;;;0.28;81.16;101557.66;5053888;28;20076;-78
2022/02/13 03:12:39;;;;;;;19.30;8.30;;;;;;;0.21;81.41;101564.03;5054319;28;20086;-76
2022/02/13 03:15:05;;;;;;;17.05;8.35;;;;;;;0.17;81.68;101546.72;5052739;28;20497;-75
2022/02/13 03:17:30;;;;;;;14.57;7.82;;;;;;;0.19;81.81;101549.28;5053863;28;20435;-75
2022/02/13 03:19:56;;;;;;;14.80;7.82;;;;;;;0.17;81.83;101547.56;5054072;28;20033;-76
2022/02/13 03:22:21;;;;;;;13.90;7.95;;;;;;;0.20;81.78;101538.75;5053826;28;20037;-75
2022/02/13 03:24:46;;;;;;;14.90;7.90;;;;;;;0.24;81.64;101537.75;5054397;28;20056;-76
2022/02/13 03:27:12;;;;;;;15.63;7.68;;;;;;;0.25;81.45;101536.81;5055007;28;20029;-76
2022/02/13 03:29:37;;;;;;;12.70;7.70;;;;;;;0.22;81.43;101529.09;5052044;28;20041;-76
2022/02/13 03:32:03;;;;;;;9.90;7.30;;;;;;;0.20;81.54;101528.28;5053035;28;20040;-76
2022/02/13 03:34:28;;;;;;;14.40;7.57;;;;;;;0.17;81.67;101529.25;5053798;28;20032;-76
2022/02/13 03:36:54;;;;;;;12.55;8.02;;;;;;;0.17;81.43;101521.41;5053814;28;20040;-76
2022/02/13 03:39:20;;;;;;;12.00;7.10;;;;;;;0.18;81.71;101522.28;5053031;28;20045;-76
2022/02/13 03:41:46;;;;;;;14.20;7.68;;;;;;;0.14;81.80;101526.75;5053810;28;20428;-76
2022/02/13 03:44:12;;;;;;;14.25;7.70;;;;;;;0.10;81.96;101521.69;5053768;28;20033;-76
2022/02/13 03:46:37;;;;;;;17.30;8.18;;;;;;;0.08;82.24;101520.91;5051647;28;20184;-77
2022/02/13 03:49:03;;;;;;;14.65;8.02;;;;;;;0.03;82.49;101521.06;5052454;28;20552;-75
2022/02/13 03:51:29;;;;;;;15.15;7.50;;;;;;;-0.01;82.50;101522.06;5052882;28;20039;-76
2022/02/13 03:53:54;;;;;;;13.05;7.95;;;;;;;-0.03;82.76;101511.66;5053523;28;20116;-75
2022/02/13 03:56:19;;;;;;;10.63;7.25;;;;;;;-0.03;82.78;101519.50;5052818;28;20041;-78
2022/02/13 03:58:45;;;;;;;13.45;7.57;;;;;;;-0.01;82.72;101522.06;5053353;28;20370;-76
2022/02/13 04:01:10;;;;;;;17.30;7.80;;;;;;;-0.02;82.74;101525.59;5053353;28;20064;-75
2022/02/13 04:03:35;;;;;;;13.68;7.57;;;;;;;-0.04;82.86;101516.94;5035133;28;20068;-75
2022/02/13 04:06:03;;;;;;;11.18;7.18;;;;;;;-0.06;82.98;101509.16;5052820;28;20029;-75
2022/02/13 04:08:28;;;;;;;14.85;8.20;;;;;;;-0.01;83.04;101501.97;5051634;28;20060;-75
2022/02/13 04:10:53;;;;;;;13.07;8.10;;;;;;;-0.06;82.96;101501.31;5053489;28;20469;-74
2022/02/13 04:13:19;;;;;;;12.18;7.72;;;;;;;0.04;83.06;101499.19;5051905;28;20473;-79
2022/02/13 04:15:44;;;;;;;14.02;7.03;;;;;;;0.05;82.61;101500.91;5052710;28;20045;-74
2022/02/13 04:18:13;;;;;;;13.55;7.75;;;;;;;0.05;82.68;101495.69;5051974;28;20033;-75
2022/02/13 04:20:39;;;;;;;11.95;7.70;;;;;;;0.07;82.62;101500.84;5051379;28;20033;-75
2022/02/13 04:23:05;;;;;;;12.02;7.50;;;;;;;0.09;82.58;101497.28;5052953;28;20048;-74
2022/02/13 04:25:30;;;;;;;15.73;7.50;;;;;;;0.09;82.57;101497.28;5052474;28;20091;-75
2022/02/13 04:27:55;;;;;;;15.07;7.50;;;;;;;0.08;82.65;101492.94;5052891;28;20029;-76
2022/02/13 04:30:22;;;;;;;17.05;7.70;;;;;;;0.11;82.72;101492.84;5052481;28;20054;-79
2022/02/13 04:32:48;;;;;;;14.10;7.70;;;;;;;0.19;82.52;101502.19;5052798;28;20032;-75
2022/02/13 04:35:13;;;;;;;17.85;7.38;;;;;;;0.19;82.49;101495.16;5052894;28;20536;-75
2022/02/13 04:37:39;;;;;;;14.95;7.82;;;;;;;0.16;82.25;101500.53;5052133;28;20485;-76
2022/02/13 04:40:04;;;;;;;13.90;7.72;;;;;;;0.15;82.50;101490.94;5052461;28;20060;-75
2022/02/13 04:42:30;;;;;;;14.10;7.50;;;;;;;0.12;82.67;101488.44;5050648;28;20055;-75
2022/02/13 04:44:55;;;;;;;11.15;7.60;;;;;;;0.22;82.67;101492.44;5052571;28;20069;-76
2022/02/13 04:47:21;;;;;;;15.20;7.78;;;;;;;0.28;82.42;101486.13;5052523;28;20119;-75
2022/02/13 04:49:46;;;;;;;11.63;7.65;;;;;;;0.27;82.21;101485.28;5052217;28;20462;-75
2022/02/13 04:52:12;;;;;;;16.25;7.57;;;;;;;0.31;82.05;101475.53;5052358;28;20064;-75
2022/02/13 04:54:37;;;;;;;15.90;8.13;;;;;;;0.32;82.03;101482.50;5052022;28;20040;-76
2022/02/13 04:57:03;;;;;;;11.00;7.35;;;;;;;0.42;81.48;101472.50;5052393;28;20090;-76
2022/02/13 04:59:33;;;;;;;14.68;8.05;;;;;;;0.53;81.12;101460.72;5051735;28;20048;-77
2022/02/13 05:01:59;;;;;;;12.23;7.50;;;;;;;0.57;80.94;101458.84;5051036;28;20335;-76
2022/02/13 05:04:24;;;;;;;13.93;7.63;;;;;;;0.67;80.50;101462.81;5052135;28;20040;-78
2022/02/13 05:06:50;;;;;;;12.85;7.95;;;;;;;0.71;80.50;101442.59;5051948;28;20039;-76
2022/02/13 05:09:15;;;;;;;14.80;7.68;;;;;;;0.75;80.26;101440.69;5052283;28;20424;-76
2022/02/13 05:11:40;;;;;;;11.18;8.05;;;;;;;0.79;79.97;101434.41;5051603;28;20127;-76
2022/02/13 05:14:06;;;;;;;11.82;7.63;;;;;;;0.86;79.79;101422.78;5052190;28;20432;-76
2022/02/13 05:16:31;;;;;;;12.88;7.10;;;;;;;0.91;79.39;101436.56;5049319;28;20083;-77
2022/02/13 05:18:57;;;;;;;14.10;7.53;;;;;;;0.97;79.16;101433.69;5051957;28;20037;-76
2022/02/13 05:21:22;;;;;;;17.58;7.65;;;;;;;1.02;78.84;101420.38;5052213;28;20075;-75
2022/02/13 05:23:47;;;;;;;11.00;7.45;;;;;;;1.03;78.65;101422.94;5051466;28;20052;-75
2022/02/13 05:26:14;;;;;;;13.90;7.53;;;;;;;1.07;78.52;101428.91;5052150;28;20056;-75
2022/02/13 05:28:39;;;;;;;11.80;7.38;;;;;;;1.11;78.27;101424.41;5051131;28;20123;-76
2022/02/13 05:31:05;;;;;;;12.80;8.00;;;;;;;1.10;78.77;101422.69;5050554;28;20922;-76
2022/02/13 05:33:30;;;;;;;11.35;7.30;;;;;;;1.12;78.41;101408.63;5051510;28;20091;-78
2022/02/13 05:35:55;;;;;;;15.82;7.68;;;;;;;1.12;78.91;101407.75;5050583;28;20504;-76
2022/02/13 05:38:21;;;;;;;12.52;7.57;;;;;;;1.15;78.35;101408.47;5051421;28;20110;-76
2022/02/13 05:40:46;;;;;;;14.77;7.88;;;;;;;1.17;78.16;101409.25;5050871;28;20060;-76
2022/02/13 05:43:11;;;;;;;16.45;8.48;;;;;;;1.18;78.01;101395.25;5051652;28;20040;-76
2022/02/13 05:45:37;;;;;;;13.13;7.78;;;;;;;1.21;77.96;101399.50;5050938;28;20535;-76
2022/02/13 05:48:02;;;;;;;11.57;7.93;;;;;;;1.23;77.65;101403.75;5050423;28;20060;-76
2022/02/13 05:50:28;;;;;;;13.90;8.40;;;;;;;1.25;77.83;101384.50;5051413;28;20388;-75
2022/02/13 05:52:53;;;;;;;13.25;7.57;;;;;;;1.28;77.54;101381.75;5050969;28;20033;-75
2022/02/13 05:55:18;;;;;;;12.02;7.40;;;;;;;1.31;77.36;101377.19;5050424;28;20456;-76
2022/02/13 05:57:44;;;;;;;14.38;7.97;;;;;;;1.28;77.76;101374.72;5050840;28;20517;-76
2022/02/13 06:00:12;;;;;;;12.57;7.45;;;;;;;1.26;77.74;101367.84;5051196;28;20110;-76
2022/02/13 06:02:41;;;;;;;14.20;7.95;;;;;;;1.29;77.59;101367.72;5051050;28;20122;-76
2022/02/13 06:05:06;;;;;;;13.35;8.35;;;;;;;1.29;77.61;101373.81;5051613;28;20037;-76
2022/02/13 06:07:50;;;;;;;13.43;7.68;;;;;;;1.30;77.72;101366.78;5051482;28;20028;-75
2022/02/13 06:10:15;;;;;;;14.88;7.70;;;;;;;1.29;77.73;101368.56;5051755;28;20044;-76
2022/02/13 06:12:41;;;;;;;14.93;8.20;;;;;;;1.29;78.05;101362.47;5050833;28;20033;-75
2022/02/13 06:15:09;;;;;;;11.73;7.40;;;;;;;1.33;77.41;101364.91;5051438;28;20136;-76
2022/02/13 06:17:35;;;;;;;13.65;8.25;;;;;;;1.34;77.48;101356.09;5051189;28;20037;-79
2022/02/13 06:20:00;;;;;;;13.52;7.70;;;;;;;1.36;77.53;101354.28;5049781;28;20385;-75
2022/02/13 06:22:26;;;;;;;11.90;7.10;;;;;;;1.36;77.54;101354.28;5051494;28;20033;-75
2022/02/13 06:24:51;;;;;;;12.20;7.43;;;;;;;1.36;77.75;101362.13;5050671;28;20033;-75
2022/02/13 06:27:16;;;;;;;12.13;7.90;;;;;;;1.36;77.72;101356.06;5050203;28;20127;-76
2022/02/13 06:29:42;;;;;;;17.52;8.13;;;;;;;1.39;77.63;101351.50;5053402;28;20128;-76
2022/02/13 06:32:08;;;;;;;17.70;8.02;;;;;;;1.40;77.60;101355.84;5055240;28;20543;-75
2022/02/13 06:34:33;;;;;;;14.43;7.82;;;;;;;1.39;77.71;101356.75;5055073;28;20037;-76
2022/02/13 06:36:58;;;;;;;13.82;6.97;;;;;;;1.36;77.87;101343.78;5053372;28;20541;-76
2022/02/13 06:39:24;;;;;;;13.43;7.95;;;;;;;1.34;78.38;101340.34;5055541;28;20049;-75
2022/02/13 06:41:49;;;;;;;13.32;7.38;;;;;;;1.34;78.14;101342.13;5054390;28;20040;-76
2022/02/13 06:44:14;;;;;;;13.32;8.00;;;;;;;1.31;78.28;101334.41;5054708;28;20039;-77
2022/02/13 06:46:40;;;;;;;14.07;7.60;;;;;;;1.30;78.58;101330.06;5054434;28;20086;-78
2022/02/13 06:49:07;;;;;;;16.20;7.88;;;;;;;1.30;78.48;101327.44;5054792;28;20064;-76
2022/02/13 06:51:33;;;;;;;12.45;7.57;;;;;;;1.28;78.76;101322.28;5036667;28;20400;-77
2022/02/13 06:53:58;;;;;;;11.77;7.68;;;;;;;1.31;78.46;101334.41;5054003;28;20029;-77
2022/02/13 06:56:23;;;;;;;11.98;8.00;;;;;;;1.32;78.41;101334.34;5054798;28;20037;-76
2022/02/13 06:58:49;;;;;;;14.23;7.75;;;;;;;1.34;78.54;101342.13;5053879;28;20058;-76
2022/02/13 07:01:14;;;;;;;11.70;7.07;;;;;;;1.32;78.79;101350.06;5054867;28;20138;-76
2022/02/13 07:03:40;;;;;;;14.63;7.97;;;;;;;1.32;78.56;101342.22;5054281;28;20063;-79
2022/02/13 07:06:07;;;;;;;14.07;7.82;;;;;;;1.32;78.67;101338.75;5054722;28;20086;-76
2022/02/13 07:08:33;;;;;;;16.23;7.65;;;;;;;1.34;78.71;101339.50;5054360;28;20033;-76
2022/02/13 07:10:59;;;;;;;11.73;7.40;;;;;;;1.35;78.54;101343.84;5054009;28;20033;-75
2022/02/13 07:13:24;;;;;;;15.98;8.05;;;;;;;1.34;78.72;101340.34;5053596;28;20481;-75
2022/02/13 07:15:49;;;;;;;10.38;7.07;;;;;;;1.36;78.87;101342.94;5053415;28;20044;-76
2022/02/13 07:18:15;;;;;;;12.18;7.57;;;;;;;1.36;78.97;101342.94;5053957;28;20106;-75
2022/02/13 07:20:41;;;;;;;12.82;7.53;;;;;;;1.39;78.79;101343.66;5053607;28;20032;-78
2022/02/13 07:23:06;;;;;;;12.48;7.78;;;;;;;1.43;78.54;101330.41;5053110;28;20032;-75
2022/02/13 07:25:31;;;;;;;13.07;7.68;;;;;;;1.43;78.78;101330.41;5053606;28;20040;-75
2022/02/13 07:27:57;;;;;;;14.18;7.78;;;;;;;1.46;78.43;101327.63;5052717;28;20033;-75
2022/02/13 07:30:22;;;;;;;12.35;7.90;;;;;;;1.49;78.34;101317.00;5052920;28;20099;-75
2022/02/13 07:32:48;;;;;;;13.60;7.47;;;;;;;1.51;78.22;101323.91;5052615;28;20115;-76
2022/02/13 07:35:14;;;;;;;16.05;7.93;;;;;;;1.55;78.06;101321.97;5053342;28;20037;-75
2022/02/13 07:37:40;;;;;;;13.48;7.35;;;;;;;1.54;78.48;101323.75;5052023;28;20454;-77
2022/02/13 07:40:07;;;;;;;13.52;8.10;;;;;;;1.57;78.11;101334.09;5051423;28;20132;-76
2022/02/13 07:42:32;;;;;;;12.63;6.93;;;;;;;1.62;77.73;101322.56;5052943;28;20033;-75
2022/02/13 07:44:58;;;;;;;9.23;6.70;;;;;;;1.64;77.82;101320.72;5034739;28;20041;-76
2022/02/13 07:47:24;;;;;;;12.35;7.40;;;;;;;1.61;78.28;101308.56;5053294;28;20036;-75
2022/02/13 07:49:50;;;;;;;10.93;7.40;;;;;;;1.63;77.92;101313.75;5051089;28;20056;-76
2022/02/13 07:52:15;;;;;;;12.20;7.32;;;;;;;1.66;77.83;101316.25;5052864;28;20178;-77
2022/02/13 07:54:41;;;;;;;13.32;7.43;;;;;;;1.65;77.92;101312.75;5052860;28;20032;-76
2022/02/13 07:57:06;;;;;;;14.68;7.38;;;;;;;1.68;77.95;101319.66;5052325;28;20176;-75
2022/02/13 07:59:32;;;;;;;13.40;7.60;;;;;;;1.70;77.80;101310.81;5052572;28;20039;-75
2022/02/13 08:01:57;;;;;;;10.48;6.85;;;;;;;1.74;77.35;101296.59;5052152;28;20120;-76
2022/02/13 08:04:23;;;;;;;15.02;7.40;;;;;;;1.79;77.65;101295.53;5051407;28;20128;-76
2022/02/13 08:06:48;;;;;;;14.52;7.53;;;;;;;1.83;77.16;101294.47;5052854;28;20059;-77
2022/02/13 08:09:13;;;;;;;11.07;6.97;;;;;;;1.89;77.08;101291.56;5052697;28;20176;-75
2022/02/13 08:11:40;;;;;;;13.27;7.30;;;;;;;1.90;77.21;101286.25;5052642;28;20449;-75
2022/02/13 08:14:05;;;;;;;9.68;7.00;;;;;;;1.88;77.19;101289.84;5048617;28;20033;-76
2022/02/13 08:16:30;;;;;;;11.50;6.90;;;;;;;1.90;77.27;101278.38;5050213;28;20386;-76
2022/02/13 08:18:56;;;;;;;9.77;6.70;;;;;;;1.96;76.81;101277.25;5048962;28;20040;-76
2022/02/13 08:21:21;;;;;;;11.75;6.65;;;;;;;2.02;77.08;101276.09;5047998;28;20151;-75
2022/02/13 08:23:47;;;;;;;11.52;6.95;;;;;;;2.04;76.94;101282.97;5049814;28;20438;-76
2022/02/13 08:26:14;;;;;;;10.90;6.90;;;;;;;2.13;76.33;101291.34;5048812;28;20501;-77
2022/02/13 08:28:40;;;;;;;13.13;6.95;;;;;;;2.10;76.99;101282.66;5049306;28;20033;-77
2022/02/13 08:31:05;;;;;;;10.07;6.97;;;;;;;2.18;76.43;101265.69;5047635;28;20037;-75
2022/02/13 08:33:31;;;;;;;13.32;7.47;;;;;;;2.26;75.82;101256.53;5049701;28;20111;-76
2022/02/13 08:35:56;;;;;;;13.63;6.95;;;;;;;2.31;75.81;101263.31;5048670;28;20033;-77
2022/02/13 08:38:25;;;;;;;12.10;7.13;;;;;;;2.38;75.57;101262.94;5051453;28;20049;-75
2022/02/13 08:40:51;;;;;;;14.70;7.13;;;;;;;2.47;75.79;101256.38;5048904;28;20041;-77
2022/02/13 08:43:18;;;;;;;13.75;6.75;;;;;;;2.54;75.27;101263.03;5048468;28;20029;-75
2022/02/13 08:45:45;;;;;;;13.23;7.47;;;;;;;2.59;75.01;101265.44;5048834;28;20072;-76
2022/02/13 08:48:11;;;;;;;12.88;7.07;;;;;;;2.67;75.53;101257.16;5048321;28;20079;-75
2022/02/13 08:50:37;;;;;;;10.30;6.25;;;;;;;2.70;74.32;101254.38;5047382;28;20083;-77
2022/02/13 08:53:02;;;;;;;12.27;6.85;;;;;;;2.76;74.37;101249.69;5048160;28;20048;-77
2022/02/13 08:55:28;;;;;;;13.20;7.20;;;;;;;2.78;74.50;101239.09;5048493;28;20466;-76
2022/02/13 08:57:53;;;;;;;9.90;6.32;;;;;;;2.83;74.02;101240.53;5048365;28;20040;-78
2022/02/13 09:00:19;;;;;;;11.85;6.93;;;;;;;2.90;73.79;101245.47;5047288;28;20532;-77
2022/02/13 09:02:45;;;;;;;13.68;6.88;;;;;;;2.98;73.42;101236.25;5047135;28;20036;-73
2022/02/13 09:05:11;;;;;;;9.20;5.88;;;;;;;2.94;73.10;101247.88;5047507;28;20025;-74
2022/02/13 09:07:39;;;;;;;15.63;7.30;;;;;;;2.91;73.48;101240.16;5048380;28;20048;-75
2022/02/13 09:10:11;;;;;;;11.68;6.95;;;;;;;2.99;73.73;101227.44;5046394;28;20123;-75
2022/02/13 09:12:37;;;;;;;9.50;6.65;;;;;;;3.01;73.43;101235.25;5047838;28;20043;-74
2022/02/13 09:15:04;;;;;;;11.23;6.57;;;;;;;3.11;72.92;101222.47;5047254;28;20032;-75
2022/02/13 09:17:30;;;;;;;13.73;6.55;;;;;;;3.17;73.34;101215.09;5047539;28;20071;-74
2022/02/13 09:19:55;;;;;;;14.02;6.53;;;;;;;3.21;72.74;101210.53;5047703;28;20037;-76
2022/02/13 09:22:21;;;;;;;12.00;7.05;;;;;;;3.39;72.53;101199.94;5047715;28;20785;-75
2022/02/13 09:24:46;;;;;;;13.10;6.60;;;;;;;3.62;71.33;101198.69;5048268;28;20028;-77
2022/02/13 09:27:11;;;;;;;11.95;6.53;;;;;;;3.58;71.26;101195.34;5047113;28;20377;-76
2022/02/13 09:29:37;;;;;;;14.10;6.30;;;;;;;3.57;71.01;101198.06;5048365;28;20373;-76
2022/02/13 09:32:03;;;;;;;12.25;6.15;;;;;;;4.00;71.09;101187.75;5047710;28;20115;-75
2022/02/13 09:34:32;;;;;;;9.85;6.47;;;;;;;4.23;68.91;101189.91;5048144;28;20151;-75
2022/02/13 09:36:58;;;;;;;14.43;6.47;;;;;;;4.31;68.83;101181.56;5048095;28;20115;-77
2022/02/13 09:39:23;;;;;;;7.78;6.10;;;;;;;4.51;68.28;101182.16;5047379;28;20144;-77
2022/02/13 09:41:50;;;;;;;10.20;6.57;;;;;;;4.75;68.14;101185.97;5046429;28;20033;-78
2022/02/13 09:44:17;;;;;;;9.80;6.22;;;;;;;4.73;67.44;101171.16;5047479;28;20049;-74
2022/02/13 09:46:44;;;;;;;10.98;7.18;;;;;;;4.79;66.62;101170.78;5048045;28;20116;-78
2022/02/13 09:49:10;;;;;;;10.05;6.07;;;;;;;4.97;66.10;101171.50;5047741;28;20139;-79
2022/02/13 09:51:35;;;;;;;12.88;6.50;;;;;;;5.30;64.70;101170.31;5047876;28;20112;-77
2022/02/13 09:54:02;;;;;;;12.50;6.55;;;;;;;5.47;64.13;101171.88;5047852;28;20052;-79
2022/02/13 09:56:28;;;;;;;11.85;7.05;;;;;;;5.13;65.31;101168.72;5047724;28;20051;-76
2022/02/13 09:58:54;;;;;;;9.65;6.07;;;;;;;5.74;63.95;101166.59;5047671;28;20025;-77
2022/02/13 10:01:33;;;;;;;11.38;6.28;;;;;;;6.27;61.78;101171.13;5047539;28;20106;-77
2022/02/13 10:03:59;;;;;;;11.50;6.13;;;;;;;6.94;60.28;101165.66;5047225;28;20037;-77
2022/02/13 10:06:25;;;;;;;10.77;6.00;;;;;;;7.64;58.40;101158.91;5045929;28;20045;-76
2022/02/13 10:08:55;;;;;;;8.45;6.40;;;;;;;8.21;56.03;101165.31;5047540;28;20029;-77
2022/02/13 10:11:24;;;;;;;10.13;6.10;;;;;;;8.36;54.69;101159.78;5047309;28;20033;-77
2022/02/13 10:13:59;;;;;;;9.48;6.00;;;;;;;8.12;55.25;101158.88;5047719;28;20481;-77
2022/02/13 10:16:31;;;;;;;14.23;6.25;;;;;;;8.31;54.98;101152.19;5045910;28;20741;-75
2022/02/13 10:18:58;;;;;;;11.35;6.22;;;;;;;8.78;54.04;101152.19;5047144;28;20025;-78
2022/02/13 10:21:45;;;;;;;11.50;6.10;;;;;;;8.23;55.12;101136.03;5046728;28;20112;-78
2022/02/13 10:24:25;;;;;;;11.57;6.50;;;;;;;7.75;56.05;101129.84;5047068;28;20036;-76
2022/02/13 10:26:53;;;;;;;9.73;6.07;;;;;;;7.86;55.54;101129.03;5026281;28;20531;-77
2022/02/13 10:29:20;;;;;;;10.60;6.15;;;;;;;7.41;56.96;101145.53;5027421;28;20084;-77
2022/02/13 10:31:46;;;;;;;11.90;6.35;;;;;;;7.07;58.46;101141.81;5032306;28;20029;-75
2022/02/13 10:34:14;;;;;;;10.70;5.75;;;;;;;6.93;58.62;101134.03;5046781;28;20132;-76
2022/02/13 10:36:45;;;;;;;9.93;5.75;;;;;;;7.62;57.85;101121.09;5047554;28;20029;-78
2022/02/13 10:39:26;;;;;;;16.00;6.88;;;;;;;7.32;57.04;101117.09;5046183;28;20145;-75
2022/02/13 10:41:53;;;;;;;10.23;6.00;;;;;;;7.86;56.36;101120.25;5047339;28;20486;-70
2022/02/13 10:44:28;;;;;;;10.40;6.22;;;;;;;7.62;56.74;101122.91;5046396;28;20485;-78
2022/02/13 10:46:54;;;;;;;10.63;6.30;;;;;;;7.37;57.75;101108.81;5046221;28;20049;-75
2022/02/13 10:49:20;;;;;;;11.60;6.57;;;;;;;7.66;56.88;101096.09;5046774;28;20108;-75
2022/02/13 10:51:46;;;;;;;9.15;6.20;;;;;;;7.65;56.40;101107.63;5046695;28;20037;-75
2022/02/13 10:54:12;;;;;;;12.15;6.10;;;;;;;8.23;55.84;101102.41;5046444;28;20406;-75
2022/02/13 10:56:38;;;;;;;10.60;5.30;;;;;;;8.43;54.23;101095.59;5046921;28;20123;-77
2022/02/13 10:59:08;;;;;;;15.07;6.45;;;;;;;7.95;55.93;101101.00;5046849;28;20381;-74
2022/02/13 11:01:34;;;;;;;13.57;6.07;;;;;;;8.05;55.26;101094.06;5047494;28;20089;-76
2022/02/13 11:04:03;;;;;;;9.57;5.78;;;;;;;7.67;56.11;101076.56;5047498;28;20033;-75
2022/02/13 11:06:34;;;;;;;12.20;5.45;;;;;;;7.69;56.17;101085.25;5045828;28;20049;-76
2022/02/13 11:09:08;;;;;;;11.23;6.20;;;;;;;7.14;58.16;101058.41;5047751;28;20041;-76
2022/02/13 11:11:33;;;;;;;8.68;5.10;;;;;;;7.10;58.52;101058.72;5046993;28;20033;-76
2022/02/13 11:13:59;;;;;;;9.48;5.65;;;;;;;7.02;58.77;101060.13;5046673;28;20418;-76
2022/02/13 11:16:36;;;;;;;8.43;5.57;;;;;;;6.67;59.31;101052.94;5050408;28;20172;-74
2022/02/13 11:19:12;;;;;;;10.55;5.80;;;;;;;6.83;59.70;101049.19;5050812;28;20116;-75
2022/02/13 11:21:41;;;;;;;10.25;5.88;;;;;;;6.87;59.19;101059.44;5050787;28;20047;-79